For water level readings from Victoria harbour, visit our Tides page.

DISCLAIMER: Although GVHA takes care to produce accurate readings from Ogden Point, the weather information on this site is raw data fed directly from sensors. It does not go through the same quality control processes used by professional weather services, and should not be relied on as a sole source of weather information for Victoria harbour.

In-depth weather values from Victoria Harbour can be found on the Environment Canada website.

Location: Ogden Point Breakwater

Current time: Jun 21, 2019 12:15 AM GMT | Jun 20, 2019 5:15 PM

Last Hour Last 3 Hours Last 6 Hours Last 12 Hours
Time Peak Wind Speed Avg Speed Avg Direction Avg Air Temp Avg Dew Point Avg Humidity
Jun 20, 2019 05:10 PM 20.4 knots 18.6 knots 210° True 17.1° C / 64.2° F 6.3° C / 42.6° F 48.9%
Jun 20, 2019 05:00 PM 19.7 knots 17.4 knots 221° True 16.9° C / 63.8° F 6.2° C / 42.4° F 49.3%
Jun 20, 2019 04:50 PM 20.7 knots 18 knots 221° True 16.7° C / 63.4° F 6.3° C / 42.6° F 50.4%
Jun 20, 2019 04:40 PM 16.6 knots 14 knots 209° True 16.6° C / 63.2° F 6.6° C / 43.2° F 51.7%
Jun 20, 2019 04:30 PM 21.4 knots 17.9 knots 212° True 16.7° C / 63.4° F 6.1° C / 42.2° F 49.7%
Jun 20, 2019 04:20 PM 23 knots 20 knots 212° True 16.6° C / 63.2° F 6.3° C / 42.6° F 50.5%
Jun 20, 2019 04:10 PM 22 knots 18.2 knots 210° True 16.3° C / 62.6° F 6.6° C / 43.2° F 52.4%
Jun 20, 2019 04:00 PM 19.3 knots 16.8 knots 209° True 16.4° C / 62.8° F 6.4° C / 42.8° F 51.5%
Jun 20, 2019 03:30 PM 13.7 knots 8.3 knots 175° True 13.2° C / 56.4° F 7.8° C / 45.6° F 70%
Jun 20, 2019 03:20 PM 11.6 knots 9.4 knots 144° True 11° C / 52° F 9.1° C / 48.2° F 87.8%
Jun 20, 2019 03:10 PM 13.2 knots 11.1 knots 146° True 10.8° C / 51.6° F 9.1° C / 48.2° F 89.3%
Jun 20, 2019 03:00 PM 13.8 knots 11.7 knots 142° True 10.7° C / 51.4° F 9.1° C / 48.2° F 89.7%
Jun 20, 2019 02:50 PM 15 knots 12.6 knots 139° True 10.6° C / 51.2° F 9° C / 48° F 89.6%
Jun 20, 2019 02:40 PM 16.4 knots 13.6 knots 137° True 10.6° C / 51.2° F 8.9° C / 47.8° F 89.3%
Jun 20, 2019 02:30 PM 16.7 knots 13.7 knots 137° True 10.6° C / 51.2° F 8.9° C / 47.8° F 89.3%
Jun 20, 2019 02:20 PM 14.9 knots 12.2 knots 131° True 10.7° C / 51.4° F 8.9° C / 47.8° F 88.8%
Jun 20, 2019 02:10 PM 14.4 knots 12.3 knots 131° True 10.8° C / 51.6° F 8.9° C / 47.8° F 88%
Jun 20, 2019 02:00 PM 14.5 knots 12.2 knots 130° True 10.9° C / 51.8° F 8.9° C / 47.8° F 87.4%
Jun 20, 2019 01:50 PM 13.3 knots 11.3 knots 128° True 10.9° C / 51.8° F 8.8° C / 47.6° F 86.9%
Jun 20, 2019 01:40 PM 13.1 knots 10.9 knots 122° True 11° C / 52° F 8.8° C / 47.6° F 86.5%
Jun 20, 2019 01:30 PM 11.8 knots 8.9 knots 101° True 11.3° C / 52.6° F 9° C / 48° F 85.7%
Jun 20, 2019 01:20 PM 12.7 knots 9.4 knots 96° True 11.1° C / 52.2° F 8.8° C / 47.6° F 85.6%
Jun 20, 2019 01:10 PM 12.7 knots 9.4 knots 95° True 11.3° C / 52.6° F 8.8° C / 47.6° F 84.5%
Jun 20, 2019 01:00 PM 9.7 knots 7.5 knots 92° True 11.2° C / 52.4° F 8.9° C / 47.8° F 85.5%
Jun 20, 2019 12:50 PM 9.5 knots 7.3 knots 93° True 11.1° C / 52.2° F 8.9° C / 47.8° F 86.6%
Jun 20, 2019 12:40 PM 9.5 knots 7.4 knots 97° True 11° C / 52° F 8.8° C / 47.6° F 86.6%
Jun 20, 2019 12:30 PM 9.3 knots 7 knots 96° True 11° C / 52° F 8.9° C / 47.8° F 86.7%
Jun 20, 2019 12:20 PM 8.1 knots 5.6 knots 90° True 11° C / 52° F 9° C / 48° F 87.3%
Jun 20, 2019 12:10 PM 7.5 knots 6.3 knots 104° True 10.8° C / 51.6° F 8.8° C / 47.6° F 87.6%
Jun 20, 2019 12:00 PM 7.4 knots 6.3 knots 120° True 10.8° C / 51.6° F 8.7° C / 47.4° F 86.8%
Jun 20, 2019 11:50 AM 7.6 knots 6.4 knots 127° True 10.8° C / 51.6° F 8.7° C / 47.4° F 86.6%
Jun 20, 2019 11:40 AM 7.5 knots 5.9 knots 128° True 10.9° C / 51.8° F 8.7° C / 47.4° F 86.3%
Jun 20, 2019 11:30 AM 6.3 knots 5.1 knots 125° True 10.9° C / 51.8° F 8.7° C / 47.4° F 86.1%
Jun 20, 2019 11:20 AM 6.4 knots 4.9 knots 132° True 10.9° C / 51.8° F 8.6° C / 47.2° F 85.4%
Jun 20, 2019 11:10 AM 6.2 knots 5 knots 140° True 10.9° C / 51.8° F 8.5° C / 47° F 85%
Jun 20, 2019 11:00 AM 6.9 knots 5.1 knots 154° True 10.8° C / 51.6° F 8.5° C / 47° F 85.8%
Jun 20, 2019 10:50 AM 8.5 knots 6.5 knots 152° True 10.9° C / 51.8° F 8.6° C / 47.2° F 85.7%
Jun 20, 2019 10:40 AM 8.9 knots 7.7 knots 159° True 11.2° C / 52.4° F 8.4° C / 46.8° F 83.2%
Jun 20, 2019 10:30 AM 6.6 knots 5.7 knots 172° True 11.7° C / 53.4° F 7.7° C / 45.4° F 76.5%
Jun 20, 2019 10:20 AM 6.2 knots 5.3 knots 179° True 11.3° C / 52.6° F 8.1° C / 46.2° F 80.9%
Jun 20, 2019 10:10 AM 4.5 knots 3.7 knots 160° True 11.2° C / 52.4° F 8.5° C / 47° F 83.3%
Jun 20, 2019 10:00 AM 4 knots 3.3 knots 168° True 11.3° C / 52.6° F 8.3° C / 46.6° F 81.6%
Jun 20, 2019 09:50 AM 4.2 knots 3.6 knots 170° True 11.4° C / 52.8° F 7.8° C / 45.6° F 78.5%
Jun 20, 2019 09:40 AM 4.7 knots 4.3 knots 172° True 11.5° C / 53° F 7.5° C / 45° F 76.5%
Jun 20, 2019 09:30 AM 4.2 knots 3.3 knots 176° True 11.5° C / 53° F 7.4° C / 44.8° F 76.3%
Jun 20, 2019 09:20 AM 3.3 knots 3 knots 188° True 11.3° C / 52.6° F 7.5° C / 45° F 77.2%
Jun 20, 2019 09:10 AM 3 knots 2.5 knots 179° True 11.2° C / 52.4° F 7.4° C / 44.8° F 77.7%
Jun 20, 2019 09:00 AM 2.8 knots 2.5 knots 188° True 11.1° C / 52.2° F 7.5° C / 45° F 78.4%
Jun 20, 2019 08:50 AM 3.2 knots 2.3 knots 197° True 11° C / 52° F 7.5° C / 45° F 78.9%
Jun 20, 2019 08:40 AM 3.9 knots 2.6 knots 181° True 10.9° C / 51.8° F 7.5° C / 45° F 79.5%
Jun 20, 2019 08:30 AM 2.5 knots 1.8 knots 189° True 11° C / 52° F 7.5° C / 45° F 79.3%
Jun 20, 2019 08:20 AM 2.2 knots 1.6 knots 230° True 10.9° C / 51.8° F 7.4° C / 44.8° F 79%
Jun 20, 2019 08:10 AM 2.2 knots 1.6 knots 210° True 10.8° C / 51.6° F 7.6° C / 45.2° F 80.9%
Jun 20, 2019 08:00 AM 2.1 knots 1.5 knots 204° True 10.7° C / 51.4° F 7.5° C / 45° F 80.2%
Jun 20, 2019 07:50 AM 3.6 knots 2.7 knots 224° True 10.7° C / 51.4° F 7.6° C / 45.2° F 81.1%
Jun 20, 2019 07:40 AM 3.7 knots 3.1 knots 234° True 10.7° C / 51.4° F 7.4° C / 44.8° F 80.1%
Jun 20, 2019 07:30 AM 4.7 knots 3.7 knots 220° True 10.6° C / 51.2° F 7.4° C / 44.8° F 80.7%
Jun 20, 2019 07:20 AM 5.7 knots 4.8 knots 216° True 10.4° C / 50.8° F 7.6° C / 45.2° F 82.3%
Jun 20, 2019 07:10 AM 7.2 knots 6.4 knots 207° True 10.2° C / 50.4° F 7.9° C / 45.8° F 85.6%
Jun 20, 2019 07:00 AM 7.4 knots 6.2 knots 194° True 10.2° C / 50.4° F 8° C / 46° F 86%
Jun 20, 2019 06:50 AM 6.5 knots 5.9 knots 207° True 10.2° C / 50.4° F 7.9° C / 45.8° F 85.5%
Jun 20, 2019 06:40 AM 8.2 knots 7 knots 210° True 10.1° C / 50.2° F 7.9° C / 45.8° F 85.9%
Jun 20, 2019 06:30 AM 8.4 knots 7.3 knots 212° True 10.1° C / 50.2° F 8° C / 46° F 86.4%
Jun 20, 2019 06:20 AM 9.5 knots 8.1 knots 222° True 10.1° C / 50.2° F 8° C / 46° F 86.3%
Jun 20, 2019 06:10 AM 10.2 knots 9 knots 224° True 10.1° C / 50.2° F 8° C / 46° F 86.9%
Jun 20, 2019 06:00 AM 11.3 knots 9.2 knots 222° True 10.1° C / 50.2° F 8.1° C / 46.2° F 87.8%
Jun 20, 2019 05:50 AM 11.4 knots 10.1 knots 206° True 10.1° C / 50.2° F 8.2° C / 46.4° F 88%
Jun 20, 2019 05:40 AM 9.3 knots 8.3 knots 210° True 10.1° C / 50.2° F 8.1° C / 46.2° F 87.5%
Jun 20, 2019 05:30 AM 7.2 knots 6.3 knots 210° True 10° C / 50° F 8.2° C / 46.4° F 88.5%
Jun 20, 2019 05:20 AM 5.9 knots 5.1 knots 208° True 10° C / 50° F 8.1° C / 46.2° F 88.2%